Time;durP1;ratioP1;P1;durP2;ratioP2;P2;SDS_P1;SDS_P2;PMS_P1;PMS_P2;Temp;Humidity;BMP_temperature;BMP_pressure;BME280_temperature;BME280_humidity;BME280_pressure;Samples;Min_cycle;Max_cycle;Signal;HPM_P1;HPM_P2
2021/03/27 00:00:00;;;;;;;;;;;23.80;41.00;;;;;;5129763;27;20276;-40
2021/03/27 00:02:30;;;;;;;;;;;23.80;41.00;;;;;;5114129;27;19924;-41
2021/03/27 00:04:57;;;;;;;;;;;23.80;41.10;;;;;;5131527;27;20347;-41
2021/03/27 00:07:26;;;;;;;;;;;23.80;41.10;;;;;;5132688;27;20033;-41
2021/03/27 00:09:56;;;;;;;;;;;23.80;41.10;;;;;;5131154;27;19923;-40
2021/03/27 00:12:23;;;;;;;;;;;23.80;41.10;;;;;;5129392;27;19924;-41
2021/03/27 00:15:08;;;;;;;;;;;23.80;41.10;;;;;;5119640;27;19924;-41
2021/03/27 00:17:37;;;;;;;;;;;23.80;41.10;;;;;;5127420;27;19923;-41
2021/03/27 00:20:12;;;;;;;;;;;23.80;41.10;;;;;;5129202;27;19971;-40
2021/03/27 00:22:43;;;;;;;;;;;23.80;41.10;;;;;;5122711;27;20044;-42
2021/03/27 00:25:22;;;;;;;;;;;23.80;41.10;;;;;;5123114;27;19929;-41
2021/03/27 00:27:52;;;;;;;;;;;23.80;41.70;;;;;;5129479;27;19924;-39
2021/03/27 00:30:21;;;;;;;;;;;23.80;41.10;;;;;;5128377;27;19923;-40
2021/03/27 00:32:50;;;;;;;;;;;23.80;41.10;;;;;;5116264;28;20047;-42
2021/03/27 00:35:24;;;;;;;;;;;23.80;41.10;;;;;;5116267;28;19924;-41
2021/03/27 00:37:51;;;;;;;;;;;23.80;41.10;;;;;;5115801;28;19923;-40
2021/03/27 00:40:19;;;;;;;;;;;23.80;41.10;;;;;;5115765;28;19923;-44
2021/03/27 00:42:49;;;;;;;;;;;23.80;41.10;;;;;;5114835;28;19927;-41
2021/03/27 00:45:16;;;;;;;;;;;23.80;41.10;;;;;;5131602;28;19923;-41
2021/03/27 00:47:49;;;;;;;;;;;23.80;41.10;;;;;;5115868;28;19924;-41
2021/03/27 00:50:23;;;;;;;;;;;23.80;41.10;;;;;;5115620;28;19924;-41
2021/03/27 00:52:51;;;;;;;;;;;23.80;41.10;;;;;;5115415;28;19931;-40
2021/03/27 00:55:20;;;;;;;;;;;23.70;41.00;;;;;;5116850;28;19928;-43
2021/03/27 00:57:54;;;;;;;;;;;23.80;41.10;;;;;;5116725;28;19940;-41
2021/03/27 01:00:24;;;;;;;;;;;23.80;41.10;;;;;;5116134;27;19931;-41
2021/03/27 01:02:53;;;;;;;;;;;23.80;41.10;;;;;;5119582;27;19930;-40
2021/03/27 01:05:23;;;;;;;;;;;23.80;41.10;;;;;;5101426;28;20298;-40
2021/03/27 01:07:50;;;;;;;;;;;23.80;41.10;;;;;;5119398;27;19931;-40
2021/03/27 01:10:31;;;;;;;;;;;23.70;41.00;;;;;;5121026;27;19930;-40
2021/03/27 01:12:59;;;;;;;;;;;23.70;41.60;;;;;;5133979;27;20359;-42
2021/03/27 01:15:28;;;;;;;;;;;23.80;41.10;;;;;;5136151;27;19927;-41
2021/03/27 01:18:19;;;;;;;;;;;23.70;41.00;;;;;;5120067;27;19966;-40
2021/03/27 01:20:49;;;;;;;;;;;23.70;41.00;;;;;;5118073;27;19924;-40
2021/03/27 01:23:16;;;;;;;;;;;23.70;41.10;;;;;;5136906;27;19923;-40
2021/03/27 01:25:42;;;;;;;;;;;23.70;41.10;;;;;;5135620;27;19924;-41
2021/03/27 01:28:35;;;;;;;;;;;23.70;41.10;;;;;;5135339;27;19924;-42
2021/03/27 01:31:25;;;;;;;;;;;23.70;41.10;;;;;;5123241;27;19928;-41
2021/03/27 01:33:58;;;;;;;;;;;23.70;41.10;;;;;;5072775;28;20307;-41
2021/03/27 01:36:40;;;;;;;;;;;23.70;41.10;;;;;;5072967;28;19924;-41
2021/03/27 01:39:18;;;;;;;;;;;23.70;41.10;;;;;;5072404;28;19935;-42
2021/03/27 01:41:45;;;;;;;;;;;23.70;41.10;;;;;;5072949;28;19924;-45
2021/03/27 01:44:11;;;;;;;;;;;23.70;41.10;;;;;;5072547;28;19928;-40
2021/03/27 01:46:41;;;;;;;;;;;23.70;41.10;;;;;;5072354;28;20019;-41
2021/03/27 01:49:25;;;;;;;;;;;23.70;41.10;;;;;;5072509;28;20516;-42
2021/03/27 01:52:04;;;;;;;;;;;23.70;41.70;;;;;;5072338;28;19951;-41
2021/03/27 01:54:31;;;;;;;;;;;23.70;41.10;;;;;;5072511;28;20388;-43
2021/03/27 01:57:12;;;;;;;;;;;23.70;41.10;;;;;;5072320;28;19932;-44
2021/03/27 01:59:42;;;;;;;;;;;23.70;41.10;;;;;;5072023;28;19925;-41
2021/03/27 02:02:11;;;;;;;;;;;23.70;41.10;;;;;;5071091;28;20015;-41
2021/03/27 02:04:49;;;;;;;;;;;23.70;41.10;;;;;;5072142;28;19967;-41
2021/03/27 02:07:24;;;;;;;;;;;23.70;41.10;;;;;;5071989;28;19924;-42
2021/03/27 02:09:53;;;;;;;;;;;23.70;41.10;;;;;;5076843;27;20453;-43
2021/03/27 02:12:29;;;;;;;;;;;23.70;41.10;;;;;;5133627;27;19927;-45
2021/03/27 02:14:58;;;;;;;;;;;23.70;41.10;;;;;;5134584;27;19927;-40
2021/03/27 02:17:43;;;;;;;;;;;23.70;41.10;;;;;;5134307;27;20007;-40
2021/03/27 02:20:16;;;;;;;;;;;23.60;41.00;;;;;;5116969;27;19963;-41
2021/03/27 02:22:52;;;;;;;;;;;23.70;41.10;;;;;;5134089;27;20260;-41
2021/03/27 02:25:33;;;;;;;;;;;23.70;41.10;;;;;;5133375;27;19924;-41
2021/03/27 02:28:13;;;;;;;;;;;23.70;41.10;;;;;;5134170;27;19928;-40
2021/03/27 02:30:43;;;;;;;;;;;23.70;41.10;;;;;;5130611;27;20373;-40
2021/03/27 02:33:17;;;;;;;;;;;23.70;41.10;;;;;;5133746;27;19924;-40
2021/03/27 02:35:52;;;;;;;;;;;23.70;41.10;;;;;;5133306;27;19931;-46
2021/03/27 02:38:18;;;;;;;;;;;23.60;41.10;;;;;;5131059;27;19930;-41
2021/03/27 02:41:08;;;;;;;;;;;23.70;41.10;;;;;;5131029;27;19942;-42
2021/03/27 02:43:40;;;;;;;;;;;23.70;41.10;;;;;;5129751;27;19923;-40
2021/03/27 02:46:11;;;;;;;;;;;23.60;41.00;;;;;;5133536;27;19924;-43
2021/03/27 02:48:51;;;;;;;;;;;23.60;41.00;;;;;;5133848;27;19927;-41
2021/03/27 02:51:23;;;;;;;;;;;23.60;41.10;;;;;;5132368;27;20006;-41
2021/03/27 02:53:49;;;;;;;;;;;23.60;41.10;;;;;;5122788;27;19924;-41
2021/03/27 02:56:16;;;;;;;;;;;23.60;41.00;;;;;;5118946;27;19924;-43
2021/03/27 02:59:01;;;;;;;;;;;23.60;41.00;;;;;;5119852;27;19927;-43
2021/03/27 03:01:35;;;;;;;;;;;23.60;41.00;;;;;;5133340;27;19923;-40
2021/03/27 03:04:10;;;;;;;;;;;23.60;41.10;;;;;;5133184;27;19927;-42
2021/03/27 03:06:36;;;;;;;;;;;23.60;41.10;;;;;;5130662;27;19931;-42
2021/03/27 03:09:22;;;;;;;;;;;23.60;41.10;;;;;;5130470;27;19931;-48
2021/03/27 03:11:58;;;;;;;;;;;23.60;41.10;;;;;;5117202;27;20389;-40
2021/03/27 03:14:24;;;;;;;;;;;23.60;41.10;;;;;;5116861;27;19929;-41
2021/03/27 03:17:09;;;;;;;;;;;23.60;41.00;;;;;;5133177;27;20321;-40
2021/03/27 03:19:59;;;;;;;;;;;23.60;41.00;;;;;;5117258;27;20283;-44
2021/03/27 03:22:40;;;;;;;;;;;23.60;41.10;;;;;;5115818;27;19923;-41
2021/03/27 03:25:12;;;;;;;;;;;23.60;41.10;;;;;;5117813;27;20387;-40
2021/03/27 03:28:05;;;;;;;;;;;23.60;41.10;;;;;;5115157;27;19930;-40
2021/03/27 03:30:31;;;;;;;;;;;23.60;41.10;;;;;;5083700;27;19976;-40
2021/03/27 03:32:58;;;;;;;;;;;23.60;41.10;;;;;;5116239;27;19928;-40
2021/03/27 03:35:40;;;;;;;;;;;23.60;41.10;;;;;;5132926;27;19930;-40
2021/03/27 03:38:06;;;;;;;;;;;23.60;41.10;;;;;;5114867;27;19924;-40
2021/03/27 03:40:51;;;;;;;;;;;23.60;41.10;;;;;;5116753;27;20299;-40
2021/03/27 03:43:24;;;;;;;;;;;23.50;41.00;;;;;;5116911;27;19924;-41
2021/03/27 03:45:59;;;;;;;;;;;23.60;41.10;;;;;;5132172;27;20395;-40
2021/03/27 03:48:38;;;;;;;;;;;23.50;41.00;;;;;;5118942;27;19931;-40
2021/03/27 03:51:28;;;;;;;;;;;23.50;41.00;;;;;;5130779;27;19973;-40
2021/03/27 03:53:55;;;;;;;;;;;23.60;41.10;;;;;;5118709;27;19923;-40
2021/03/27 03:56:36;;;;;;;;;;;23.50;41.00;;;;;;5118947;27;19923;-40
2021/03/27 03:59:19;;;;;;;;;;;23.50;41.00;;;;;;5115977;27;19924;-40
2021/03/27 04:02:04;;;;;;;;;;;23.60;41.00;;;;;;5127979;27;19924;-39
2021/03/27 04:04:42;;;;;;;;;;;23.60;41.10;;;;;;5130726;27;20417;-41
2021/03/27 04:07:11;;;;;;;;;;;23.50;41.00;;;;;;5113708;27;20382;-40
2021/03/27 04:09:41;;;;;;;;;;;23.50;41.00;;;;;;5132112;27;19923;-41
2021/03/27 04:12:19;;;;;;;;;;;23.60;41.10;;;;;;5132007;27;19924;-40
2021/03/27 04:14:50;;;;;;;;;;;23.50;41.00;;;;;;5130652;27;19923;-40
2021/03/27 04:17:26;;;;;;;;;;;23.50;41.00;;;;;;5130803;27;19927;-40
2021/03/27 04:19:58;;;;;;;;;;;23.50;41.00;;;;;;5130591;27;19923;-40
2021/03/27 04:22:28;;;;;;;;;;;23.50;41.00;;;;;;5129236;27;19923;-40
2021/03/27 04:25:13;;;;;;;;;;;23.50;41.00;;;;;;5131797;27;20388;-41
2021/03/27 04:27:48;;;;;;;;;;;23.50;41.00;;;;;;5130359;27;19949;-40
2021/03/27 04:30:18;;;;;;;;;;;23.50;41.00;;;;;;5130673;27;19924;-40
2021/03/27 04:32:47;;;;;;;;;;;23.50;41.00;;;;;;5116042;28;19989;-40
2021/03/27 04:35:32;;;;;;;;;;;23.50;41.00;;;;;;5130226;27;19927;-41
2021/03/27 04:37:58;;;;;;;;;;;23.50;41.00;;;;;;5116077;28;20271;-39
2021/03/27 04:40:31;;;;;;;;;;;23.50;41.00;;;;;;5132579;28;19968;-39
2021/03/27 04:43:00;;;;;;;;;;;23.50;41.00;;;;;;5131029;28;19927;-40
2021/03/27 04:45:28;;;;;;;;;;;23.50;41.00;;;;;;5132295;28;19927;-40
2021/03/27 04:48:13;;;;;;;;;;;23.50;41.00;;;;;;5130101;28;19980;-41
2021/03/27 04:50:57;;;;;;;;;;;23.50;41.00;;;;;;5131773;28;20351;-40
2021/03/27 04:53:30;;;;;;;;;;;23.50;41.00;;;;;;5129413;28;20378;-41
2021/03/27 04:55:59;;;;;;;;;;;23.50;40.90;;;;;;5130294;28;19931;-41
2021/03/27 04:58:32;;;;;;;;;;;23.50;41.00;;;;;;5130642;28;19924;-42
2021/03/27 05:01:04;;;;;;;;;;;23.50;41.00;;;;;;5130157;28;20328;-44
2021/03/27 05:03:41;;;;;;;;;;;23.50;41.00;;;;;;5128572;28;20375;-41
2021/03/27 05:06:21;;;;;;;;;;;23.50;40.90;;;;;;5128659;28;19923;-43
2021/03/27 05:08:50;;;;;;;;;;;23.50;40.90;;;;;;5130283;28;19927;-41
2021/03/27 05:11:17;;;;;;;;;;;23.50;41.00;;;;;;5130080;28;19928;-41
2021/03/27 05:13:53;;;;;;;;;;;23.50;41.00;;;;;;5128966;28;19923;-40
2021/03/27 05:16:22;;;;;;;;;;;23.50;41.00;;;;;;5130229;28;20317;-40
2021/03/27 05:18:50;;;;;;;;;;;23.50;41.00;;;;;;5131559;28;19930;-43
2021/03/27 05:21:36;;;;;;;;;;;23.50;41.00;;;;;;5131221;28;19950;-40
2021/03/27 05:24:22;;;;;;;;;;;23.50;41.00;;;;;;5131394;28;19923;-46
2021/03/27 05:26:48;;;;;;;;;;;23.50;41.00;;;;;;5129235;28;19924;-40
2021/03/27 05:29:27;;;;;;;;;;;23.50;41.00;;;;;;5114654;28;20265;-40
2021/03/27 05:32:04;;;;;;;;;;;23.50;40.90;;;;;;5111992;28;19927;-39
2021/03/27 05:34:36;;;;;;;;;;;23.50;40.90;;;;;;5095451;28;20382;-40
2021/03/27 05:37:21;;;;;;;;;;;23.50;40.90;;;;;;5113569;28;19924;-41
2021/03/27 05:39:57;;;;;;;;;;;23.50;40.90;;;;;;5113742;28;19924;-40
2021/03/27 05:42:26;;;;;;;;;;;23.50;40.90;;;;;;5131439;28;19923;-42
2021/03/27 05:44:53;;;;;;;;;;;23.50;40.90;;;;;;5114259;28;19977;-40
2021/03/27 05:47:38;;;;;;;;;;;23.50;40.90;;;;;;5132887;27;19924;-40
2021/03/27 05:50:04;;;;;;;;;;;23.50;40.90;;;;;;5134980;27;19924;-41
2021/03/27 05:52:50;;;;;;;;;;;23.50;40.90;;;;;;5121140;27;19963;-41
2021/03/27 05:55:35;;;;;;;;;;;23.50;40.90;;;;;;5119945;27;19924;-40
2021/03/27 05:58:07;;;;;;;;;;;23.50;40.90;;;;;;5133479;27;19923;-40
2021/03/27 06:00:36;;;;;;;;;;;23.50;41.00;;;;;;5119624;27;20329;-40
2021/03/27 06:03:12;;;;;;;;;;;23.50;40.90;;;;;;5129145;27;20322;-40
2021/03/27 06:05:38;;;;;;;;;;;23.50;40.90;;;;;;5130037;27;19967;-40
2021/03/27 06:08:23;;;;;;;;;;;23.50;40.90;;;;;;5125214;27;20006;-40
2021/03/27 06:10:54;;;;;;;;;;;23.50;40.90;;;;;;5125959;27;19931;-40
2021/03/27 06:13:20;;;;;;;;;;;23.50;40.90;;;;;;5124056;27;19923;-40
2021/03/27 06:16:06;;;;;;;;;;;23.50;40.90;;;;;;5132091;27;19927;-40
2021/03/27 06:18:43;;;;;;;;;;;23.50;40.90;;;;;;5134186;27;19924;-41
2021/03/27 06:21:16;;;;;;;;;;;23.50;40.90;;;;;;5130942;27;19923;-40
2021/03/27 06:23:57;;;;;;;;;;;23.50;40.90;;;;;;5123083;27;19988;-40
2021/03/27 06:26:35;;;;;;;;;;;23.50;40.90;;;;;;5132883;27;20260;-39
2021/03/27 06:29:16;;;;;;;;;;;23.50;40.90;;;;;;5132203;27;19923;-39
2021/03/27 06:32:01;;;;;;;;;;;23.50;40.90;;;;;;5129682;27;19931;-39
2021/03/27 06:34:47;;;;;;;;;;;23.50;40.90;;;;;;5119144;27;19936;-39
2021/03/27 06:37:19;;;;;;;;;;;23.50;40.90;;;;;;5117671;27;19924;-39
2021/03/27 06:39:49;;;;;;;;;;;23.50;40.90;;;;;;5117545;27;20032;-40
2021/03/27 06:42:35;;;;;;;;;;;23.50;40.90;;;;;;5118664;27;20282;-40
2021/03/27 06:45:10;;;;;;;;;;;23.50;40.80;;;;;;5132440;27;20275;-39
2021/03/27 06:47:42;;;;;;;;;;;23.50;40.80;;;;;;5134971;27;19927;-39
2021/03/27 06:50:18;;;;;;;;;;;23.50;40.80;;;;;;5118348;27;19930;-39
2021/03/27 06:52:48;;;;;;;;;;;23.50;40.80;;;;;;5115785;27;19976;-40
2021/03/27 06:55:28;;;;;;;;;;;23.50;40.80;;;;;;5132984;27;19923;-39
2021/03/27 06:58:16;;;;;;;;;;;23.50;40.80;;;;;;5115468;27;19923;-42
2021/03/27 07:00:46;;;;;;;;;;;23.50;40.80;;;;;;5115378;27;19994;-39
2021/03/27 07:03:31;;;;;;;;;;;23.50;40.80;;;;;;5116730;27;19928;-39
2021/03/27 07:05:58;;;;;;;;;;;23.50;40.80;;;;;;5132845;27;19967;-42
2021/03/27 07:08:25;;;;;;;;;;;23.50;40.80;;;;;;5132510;27;19924;-40
2021/03/27 07:11:00;;;;;;;;;;;23.50;40.80;;;;;;5133130;27;19924;-45
2021/03/27 07:13:50;;;;;;;;;;;23.50;40.80;;;;;;5133286;27;19932;-43
2021/03/27 07:16:24;;;;;;;;;;;23.50;40.80;;;;;;5132999;27;19931;-40
2021/03/27 07:18:57;;;;;;;;;;;23.50;40.80;;;;;;5131316;27;19927;-41
2021/03/27 07:21:44;;;;;;;;;;;23.50;40.80;;;;;;5132120;27;19927;-41
2021/03/27 07:24:20;;;;;;;;;;;23.50;40.80;;;;;;5130590;27;20333;-43
2021/03/27 07:26:49;;;;;;;;;;;23.50;40.80;;;;;;5131487;27;19927;-43
2021/03/27 07:29:32;;;;;;;;;;;23.60;40.90;;;;;;5132788;27;20370;-43
2021/03/27 07:32:05;;;;;;;;;;;23.60;40.90;;;;;;5128645;27;19945;-43
2021/03/27 07:34:34;;;;;;;;;;;23.50;40.80;;;;;;5131461;27;19978;-43
2021/03/27 07:37:14;;;;;;;;;;;23.50;40.80;;;;;;5132376;27;19962;-48
2021/03/27 07:39:43;;;;;;;;;;;23.60;40.80;;;;;;5131046;27;19930;-46
2021/03/27 07:42:17;;;;;;;;;;;23.60;41.40;;;;;;5132826;27;19924;-41
2021/03/27 07:45:02;;;;;;;;;;;23.60;40.90;;;;;;5129881;27;19923;-44
2021/03/27 07:47:44;;;;;;;;;;;23.60;40.80;;;;;;5132315;27;19977;-41
2021/03/27 07:50:17;;;;;;;;;;;23.60;40.80;;;;;;5129909;27;20291;-41
2021/03/27 07:52:53;;;;;;;;;;;23.60;40.80;;;;;;5130754;27;20375;-42
2021/03/27 07:55:39;;;;;;;;;;;23.60;40.80;;;;;;5129703;27;19977;-43
2021/03/27 07:58:12;;;;;;;;;;;23.60;40.70;;;;;;5130135;27;19946;-45
2021/03/27 08:00:51;;;;;;;;;;;23.60;40.70;;;;;;5130775;27;19967;-46
2021/03/27 08:03:50;;;;;;;;;;;23.60;40.80;;;;;;5130964;27;19986;-43
2021/03/27 08:06:29;;;;;;;;;;;23.60;40.70;;;;;;5012347;28;20439;-43
2021/03/27 08:08:58;;;;;;;;;;;23.60;40.70;;;;;;5026814;28;20419;-42
2021/03/27 08:11:27;;;;;;;;;;;23.70;40.80;;;;;;5027479;28;19939;-42
2021/03/27 08:14:12;;;;;;;;;;;23.60;40.70;;;;;;5028650;28;19929;-42
2021/03/27 08:16:53;;;;;;;;;;;23.70;40.80;;;;;;5013774;28;19968;-41
2021/03/27 08:19:23;;;;;;;;;;;23.60;40.70;;;;;;5014708;28;20316;-44
2021/03/27 08:22:07;;;;;;;;;;;23.60;40.70;;;;;;5028601;28;19929;-45
2021/03/27 08:24:43;;;;;;;;;;;23.60;40.70;;;;;;5028829;28;19926;-44
2021/03/27 08:27:33;;;;;;;;;;;23.70;40.80;;;;;;5028884;28;20325;-42
2021/03/27 08:30:20;;;;;;;;;;;23.70;40.70;;;;;;5028327;28;19949;-41
2021/03/27 08:33:00;;;;;;;;;;;23.70;40.70;;;;;;5012075;28;19925;-41
2021/03/27 08:35:50;;;;;;;;;;;23.60;40.70;;;;;;5011963;28;20378;-43
2021/03/27 08:38:29;;;;;;;;;;;23.70;40.70;;;;;;5014678;28;20381;-41
2021/03/27 08:41:14;;;;;;;;;;;23.60;40.60;;;;;;5015616;28;19929;-42
2021/03/27 08:43:59;;;;;;;;;;;23.70;40.70;;;;;;5033977;28;19946;-42
2021/03/27 08:46:31;;;;;;;;;;;23.70;40.70;;;;;;5048580;28;20376;-42
2021/03/27 08:49:07;;;;;;;;;;;23.70;40.70;;;;;;5032597;28;19929;-44
2021/03/27 08:51:41;;;;;;;;;;;23.70;40.70;;;;;;5032251;28;19932;-41
2021/03/27 08:54:26;;;;;;;;;;;23.70;40.70;;;;;;5048827;28;20428;-42
2021/03/27 08:57:15;;;;;;;;;;;23.70;40.70;;;;;;5031413;28;20312;-41
2021/03/27 08:59:51;;;;;;;;;;;23.70;40.70;;;;;;5031276;28;19940;-41
2021/03/27 09:02:27;;;;;;;;;;;23.70;40.70;;;;;;5048971;28;20411;-41
2021/03/27 09:04:59;;;;;;;;;;;23.70;40.70;;;;;;5031762;28;19925;-43
2021/03/27 09:07:32;;;;;;;;;;;23.70;40.70;;;;;;5048443;28;20001;-43
2021/03/27 09:10:05;;;;;;;;;;;23.70;40.70;;;;;;5048283;28;20389;-43
2021/03/27 09:12:40;;;;;;;;;;;23.70;40.70;;;;;;5034439;28;19925;-42
2021/03/27 09:15:09;;;;;;;;;;;23.70;40.80;;;;;;5064808;28;19932;-42
2021/03/27 09:17:54;;;;;;;;;;;23.70;40.80;;;;;;5090469;28;19924;-41
2021/03/27 09:20:28;;;;;;;;;;;23.70;40.80;;;;;;5077840;28;19935;-43
2021/03/27 09:22:57;;;;;;;;;;;23.70;40.80;;;;;;5078064;28;19978;-43
2021/03/27 09:25:30;;;;;;;;;;;23.70;40.80;;;;;;5078616;28;19985;-41
2021/03/27 09:28:15;;;;;;;;;;;23.70;40.80;;;;;;5081325;28;19928;-41
2021/03/27 09:30:51;;;;;;;;;;;23.70;40.80;;;;;;5078329;28;19928;-43
2021/03/27 09:33:18;;;;;;;;;;;23.60;40.80;;;;;;5078223;28;19932;-42
2021/03/27 09:36:00;;;;;;;;;;;23.70;40.80;;;;;;5085500;28;19925;-43
2021/03/27 09:38:26;;;;;;;;;;;23.70;40.80;;;;;;5090376;28;19925;-41
2021/03/27 09:41:11;;;;;;;;;;;23.70;40.80;;;;;;5130229;27;19924;-41
2021/03/27 09:43:44;;;;;;;;;;;23.70;40.90;;;;;;5119096;27;19948;-41
2021/03/27 09:46:29;;;;;;;;;;;23.60;40.80;;;;;;5121294;27;19938;-41
2021/03/27 09:49:14;;;;;;;;;;;23.70;40.90;;;;;;5120110;27;19923;-41
2021/03/27 09:52:00;;;;;;;;;;;23.60;40.80;;;;;;5121209;27;19924;-41
2021/03/27 09:54:51;;;;;;;;;;;23.70;40.90;;;;;;5132908;27;20005;-41
2021/03/27 09:57:24;;;;;;;;;;;23.60;40.80;;;;;;5134712;27;20321;-43
2021/03/27 10:00:02;;;;;;;;;;;23.60;40.80;;;;;;5134393;27;19923;-42
2021/03/27 10:02:36;;;;;;;;;;;23.70;40.90;;;;;;5134407;27;19923;-41
2021/03/27 10:05:05;;;;;;;;;;;23.60;40.80;;;;;;5133185;27;20391;-40
2021/03/27 10:07:32;;;;;;;;;;;23.70;40.90;;;;;;5133150;27;19923;-42
2021/03/27 10:10:02;;;;;;;;;;;23.70;40.90;;;;;;5134042;27;19935;-40
2021/03/27 10:12:41;;;;;;;;;;;23.70;40.90;;;;;;5136001;27;19923;-41
2021/03/27 10:15:22;;;;;;;;;;;23.70;40.90;;;;;;5133717;27;19927;-42
2021/03/27 10:18:00;;;;;;;;;;;23.70;40.90;;;;;;5134103;27;20010;-41
2021/03/27 10:20:30;;;;;;;;;;;23.70;40.90;;;;;;5133776;27;19927;-41
2021/03/27 10:23:03;;;;;;;;;;;23.70;40.90;;;;;;5132338;27;19928;-41
2021/03/27 10:25:29;;;;;;;;;;;23.60;40.80;;;;;;5133192;27;19930;-41
2021/03/27 10:28:14;;;;;;;;;;;23.70;40.90;;;;;;5133854;27;19928;-41
2021/03/27 10:30:41;;;;;;;;;;;23.70;40.90;;;;;;5127849;27;20399;-42
2021/03/27 10:33:16;;;;;;;;;;;23.70;40.90;;;;;;5128646;27;20327;-41
2021/03/27 10:35:46;;;;;;;;;;;23.70;40.90;;;;;;5132568;27;19930;-41
2021/03/27 10:38:29;;;;;;;;;;;23.70;40.90;;;;;;5133819;27;19924;-42
2021/03/27 10:41:06;;;;;;;;;;;23.70;40.90;;;;;;5133896;27;20008;-41
2021/03/27 10:43:37;;;;;;;;;;;23.70;41.50;;;;;;5132344;27;19935;-45
2021/03/27 10:46:22;;;;;;;;;;;23.70;40.90;;;;;;5132596;27;19923;-41
2021/03/27 10:48:48;;;;;;;;;;;23.70;40.90;;;;;;5132634;27;19930;-42
2021/03/27 10:51:24;;;;;;;;;;;23.70;40.90;;;;;;5132499;27;19930;-41
2021/03/27 10:53:59;;;;;;;;;;;23.70;40.90;;;;;;5132226;27;19932;-41
2021/03/27 10:56:56;;;;;;;;;;;23.70;40.90;;;;;;5133264;27;19930;-42
2021/03/27 10:59:30;;;;;;;;;;;23.70;40.90;;;;;;5131171;27;20314;-42
2021/03/27 11:02:03;;;;;;;;;;;23.70;40.90;;;;;;5131996;27;20135;-41
2021/03/27 11:04:36;;;;;;;;;;;23.70;40.90;;;;;;5132262;27;19923;-41
2021/03/27 11:07:18;;;;;;;;;;;23.70;40.90;;;;;;5104482;27;19942;-41
2021/03/27 11:09:45;;;;;;;;;;;23.70;41.60;;;;;;5131758;27;19924;-41
2021/03/27 11:12:28;;;;;;;;;;;23.70;41.00;;;;;;5133476;27;19923;-44
2021/03/27 11:14:58;;;;;;;;;;;23.70;41.00;;;;;;5115969;27;19924;-46
2021/03/27 11:17:37;;;;;;;;;;;23.70;41.00;;;;;;5116856;27;19927;-43
2021/03/27 11:20:03;;;;;;;;;;;23.70;41.00;;;;;;5116496;27;19924;-44
2021/03/27 11:22:42;;;;;;;;;;;23.70;41.00;;;;;;5132280;27;20286;-42
2021/03/27 11:25:24;;;;;;;;;;;23.60;40.90;;;;;;5133497;27;19930;-45
2021/03/27 11:28:09;;;;;;;;;;;23.70;41.00;;;;;;5114925;27;19972;-43
2021/03/27 11:30:38;;;;;;;;;;;23.70;41.00;;;;;;5128341;27;19927;-43
2021/03/27 11:33:16;;;;;;;;;;;23.70;41.00;;;;;;5132511;27;19930;-42
2021/03/27 11:35:50;;;;;;;;;;;23.70;41.00;;;;;;5132970;27;19931;-41
2021/03/27 11:38:35;;;;;;;;;;;23.60;40.90;;;;;;5131399;27;19927;-43
2021/03/27 11:41:24;;;;;;;;;;;23.70;41.00;;;;;;5130729;27;20374;-45
2021/03/27 11:43:51;;;;;;;;;;;23.60;40.90;;;;;;5097071;28;20446;-42
2021/03/27 11:46:27;;;;;;;;;;;23.70;41.00;;;;;;5128651;27;20295;-47
2021/03/27 11:48:54;;;;;;;;;;;23.70;41.00;;;;;;5120056;27;19931;-44
2021/03/27 11:51:24;;;;;;;;;;;23.70;41.00;;;;;;5117884;27;19923;-42
2021/03/27 11:54:09;;;;;;;;;;;23.70;41.00;;;;;;5116253;27;19936;-41
2021/03/27 11:56:38;;;;;;;;;;;23.70;41.00;;;;;;5117582;27;19924;-45
2021/03/27 12:02:14;;;;;;;;;;;23.70;41.00;;;;;;5117533;27;20371;-42
2021/03/27 12:04:48;;;;;;;;;;;23.60;40.90;;;;;;5098615;28;20298;-44
2021/03/27 12:07:17;;;;;;;;;;;23.70;41.00;;;;;;5125080;27;19923;-44
2021/03/27 12:09:49;;;;;;;;;;;23.70;41.00;;;;;;5126541;27;19931;-41
2021/03/27 12:12:34;;;;;;;;;;;23.60;40.90;;;;;;5099536;28;19977;-41
2021/03/27 12:15:16;;;;;;;;;;;23.70;41.00;;;;;;5115484;27;19931;-41
2021/03/27 12:17:51;;;;;;;;;;;23.70;41.00;;;;;;5115985;27;19924;-41
2021/03/27 12:20:41;;;;;;;;;;;23.70;41.00;;;;;;5119585;27;19931;-41
2021/03/27 12:23:14;;;;;;;;;;;23.70;41.00;;;;;;5103422;27;19923;-41
2021/03/27 12:25:52;;;;;;;;;;;23.70;41.10;;;;;;5114239;27;19971;-41
2021/03/27 12:28:22;;;;;;;;;;;23.70;41.00;;;;;;5116273;27;20477;-41
2021/03/27 12:30:55;;;;;;;;;;;23.70;41.00;;;;;;5116700;27;19924;-45
2021/03/27 12:33:36;;;;;;;;;;;23.70;41.00;;;;;;5132158;27;19930;-42
2021/03/27 12:36:09;;;;;;;;;;;23.70;41.00;;;;;;5115812;27;19923;-41
2021/03/27 12:38:41;;;;;;;;;;;23.70;41.00;;;;;;5098646;27;19927;-40
2021/03/27 12:41:15;;;;;;;;;;;23.70;41.00;;;;;;5115808;28;19976;-41
2021/03/27 12:43:48;;;;;;;;;;;23.70;41.00;;;;;;5113571;28;19928;-41
2021/03/27 12:46:20;;;;;;;;;;;23.70;41.00;;;;;;5132369;28;19934;-41
2021/03/27 12:49:05;;;;;;;;;;;23.70;41.00;;;;;;5131656;28;19928;-41
2021/03/27 12:51:32;;;;;;;;;;;23.70;41.00;;;;;;5132079;28;19938;-41
2021/03/27 12:54:01;;;;;;;;;;;23.70;41.00;;;;;;5130493;28;19930;-41
2021/03/27 12:56:52;;;;;;;;;;;23.70;41.00;;;;;;5131584;27;19930;-41
2021/03/27 12:59:27;;;;;;;;;;;23.70;41.00;;;;;;5134587;27;19974;-41
2021/03/27 13:02:08;;;;;;;;;;;23.70;41.00;;;;;;5136118;27;20247;-43
2021/03/27 13:04:54;;;;;;;;;;;23.70;41.00;;;;;;5136060;27;19930;-41
2021/03/27 13:07:33;;;;;;;;;;;23.70;41.00;;;;;;5115862;27;19930;-42
2021/03/27 13:10:08;;;;;;;;;;;23.70;41.00;;;;;;5134430;27;19924;-41
2021/03/27 13:12:37;;;;;;;;;;;23.70;41.00;;;;;;5135790;27;20406;-41
2021/03/27 13:15:24;;;;;;;;;;;23.70;41.00;;;;;;5134310;27;19988;-43
2021/03/27 13:18:00;;;;;;;;;;;23.70;41.00;;;;;;5133224;27;20367;-47
2021/03/27 13:20:52;;;;;;;;;;;23.70;41.00;;;;;;5135874;27;19923;-41
2021/03/27 13:23:22;;;;;;;;;;;23.70;41.00;;;;;;5131499;27;19923;-43
2021/03/27 13:26:03;;;;;;;;;;;23.70;41.00;;;;;;5134329;27;19930;-42
2021/03/27 13:28:35;;;;;;;;;;;23.70;41.00;;;;;;5135525;27;20374;-41
2021/03/27 13:31:14;;;;;;;;;;;23.70;41.00;;;;;;5121411;27;19931;-41
2021/03/27 13:34:00;;;;;;;;;;;23.70;41.60;;;;;;5128571;27;19976;-41
2021/03/27 13:36:42;;;;;;;;;;;23.70;41.00;;;;;;5125660;27;19924;-41
2021/03/27 13:39:29;;;;;;;;;;;23.70;41.00;;;;;;5118094;27;19978;-41
2021/03/27 13:42:01;;;;;;;;;;;23.70;40.90;;;;;;5119159;27;20379;-41
2021/03/27 13:44:28;;;;;;;;;;;23.70;40.90;;;;;;5128064;27;19927;-42
2021/03/27 13:46:55;;;;;;;;;;;23.70;40.90;;;;;;5135473;27;19924;-41
2021/03/27 13:49:23;;;;;;;;;;;23.70;41.00;;;;;;5130652;27;20298;-43
2021/03/27 13:52:07;;;;;;;;;;;23.70;40.90;;;;;;5120527;27;19924;-44
2021/03/27 13:54:33;;;;;;;;;;;23.70;40.90;;;;;;5119278;27;19931;-41
2021/03/27 13:57:36;;;;;;;;;;;23.70;41.00;;;;;;5120522;27;19924;-43
2021/03/27 14:00:27;;;;;;;;;;;23.70;41.00;;;;;;5057040;28;19971;-42
2021/03/27 14:02:53;;;;;;;;;;;23.70;41.00;;;;;;5059580;28;20474;-41
2021/03/27 14:05:40;;;;;;;;;;;23.70;41.00;;;;;;5070941;28;20415;-45
2021/03/27 14:08:19;;;;;;;;;;;23.70;41.00;;;;;;5056651;28;19967;-44
2021/03/27 14:10:59;;;;;;;;;;;23.70;41.00;;;;;;5055835;28;19932;-44
2021/03/27 14:13:28;;;;;;;;;;;23.70;40.90;;;;;;5057282;28;20414;-42
2021/03/27 14:16:21;;;;;;;;;;;23.70;40.90;;;;;;5056553;28;19928;-44
2021/03/27 14:18:52;;;;;;;;;;;23.70;40.90;;;;;;5068678;28;20276;-44
2021/03/27 14:21:36;;;;;;;;;;;23.70;41.00;;;;;;5071179;28;20465;-46
2021/03/27 14:24:19;;;;;;;;;;;23.70;40.90;;;;;;5070903;28;19971;-41
2021/03/27 14:27:04;;;;;;;;;;;23.70;40.90;;;;;;5069790;28;19924;-44
2021/03/27 14:29:47;;;;;;;;;;;23.70;40.90;;;;;;5069458;28;19925;-44
2021/03/27 14:32:18;;;;;;;;;;;23.70;40.90;;;;;;5070020;28;19941;-44
2021/03/27 14:34:58;;;;;;;;;;;23.70;41.00;;;;;;5111473;27;19981;-43
2021/03/27 14:37:47;;;;;;;;;;;23.70;40.90;;;;;;5133442;27;19945;-42
2021/03/27 14:40:30;;;;;;;;;;;23.70;40.90;;;;;;5031907;28;20377;-46
2021/03/27 14:42:56;;;;;;;;;;;23.70;40.90;;;;;;5031242;28;19925;-42
2021/03/27 14:45:32;;;;;;;;;;;23.70;40.90;;;;;;5015889;28;19936;-42
2021/03/27 14:48:20;;;;;;;;;;;23.70;40.90;;;;;;5016376;28;19926;-43
2021/03/27 14:50:52;;;;;;;;;;;23.70;40.90;;;;;;5017002;28;19925;-44
2021/03/27 14:53:36;;;;;;;;;;;23.70;40.90;;;;;;5014687;28;19976;-42
2021/03/27 14:56:12;;;;;;;;;;;23.70;40.90;;;;;;5014734;28;19925;-43
2021/03/27 14:58:41;;;;;;;;;;;23.70;40.90;;;;;;5031227;28;19932;-43
2021/03/27 15:01:21;;;;;;;;;;;23.70;40.90;;;;;;5014806;28;19929;-41
2021/03/27 15:03:52;;;;;;;;;;;23.70;40.90;;;;;;5014811;28;19929;-41
2021/03/27 15:06:30;;;;;;;;;;;23.70;40.90;;;;;;5015172;28;20030;-43
2021/03/27 15:09:19;;;;;;;;;;;23.70;40.90;;;;;;5016349;28;19929;-41